Time;durP1;ratioP1;P1;durP2;ratioP2;P2;SDS_P1;SDS_P2;PMS_P1;PMS_P2;Temp;Humidity;BMP_temperature;BMP_pressure;BME280_temperature;BME280_humidity;BME280_pressure;Samples;Min_cycle;Max_cycle;Signal;HPM_P1;HPM_P2
2023/12/08 00:00:14;;;;;;;1.93;1.70;;;;;;;-5.14;100.00;95501.06;1043433;28;20503;-74
2023/12/08 00:00:46;;;;;;;1.33;1.33;;;;;;;-5.17;100.00;95506.53;1043391;28;20059;-75
2023/12/08 00:01:16;;;;;;;0.93;0.93;;;;;;;-5.14;100.00;95506.19;1035189;28;20022;-75
2023/12/08 00:01:47;;;;;;;1.10;1.10;;;;;;;-5.14;100.00;95500.28;1031081;28;20034;-74
2023/12/08 00:02:17;;;;;;;3.00;1.77;;;;;;;-5.15;100.00;95514.81;1026885;28;20027;-75
2023/12/08 00:02:47;;;;;;;1.20;1.00;;;;;;;-5.16;100.00;95513.25;1035240;28;20030;-75
2023/12/08 00:03:18;;;;;;;3.03;1.57;;;;;;;-5.15;100.00;95516.59;1043376;28;20055;-74
2023/12/08 00:03:48;;;;;;;0.50;0.50;;;;;;;-5.14;100.00;95518.97;1047545;28;20502;-75
2023/12/08 00:04:19;;;;;;;0.43;0.43;;;;;;;-5.15;100.00;95512.28;1047225;28;20394;-75
2023/12/08 00:04:49;;;;;;;0.77;0.77;;;;;;;-5.17;100.00;95509.06;1047541;28;20016;-75
2023/12/08 00:05:20;;;;;;;1.47;1.37;;;;;;;-5.13;100.00;95512.09;1039380;28;20021;-75
2023/12/08 00:05:50;;;;;;;1.53;1.43;;;;;;;-5.11;100.00;95513.50;1031024;28;20018;-75
2023/12/08 00:06:21;;;;;;;1.87;1.77;;;;;;;-5.10;100.00;95515.09;1027059;28;20050;-75
2023/12/08 00:06:51;;;;;;;1.53;1.53;;;;;;;-5.25;100.00;95484.38;1023377;28;20100;-74
2023/12/08 00:07:22;;;;;;;1.57;1.50;;;;;;;-5.15;100.00;95504.59;1022876;28;20150;-73
2023/12/08 00:07:52;;;;;;;2.53;0.60;;;;;;;-5.16;100.00;95503.00;1027610;28;20069;-76
2023/12/08 00:08:23;;;;;;;1.57;1.47;;;;;;;-5.07;100.00;95506.28;1035062;28;20089;-74
2023/12/08 00:08:54;;;;;;;2.53;2.33;;;;;;;-5.06;100.00;95501.03;1035459;28;20584;-75
2023/12/08 00:09:24;;;;;;;4.00;2.30;;;;;;;-5.11;100.00;95494.81;1046597;28;20071;-75
2023/12/08 00:09:55;;;;;;;1.47;1.30;;;;;;;-5.05;100.00;95507.72;1042379;28;20025;-75
2023/12/08 00:10:25;;;;;;;1.10;1.10;;;;;;;-5.06;100.00;95501.03;1039246;28;20500;-75
2023/12/08 00:10:56;;;;;;;8.67;1.43;;;;;;;-5.08;100.00;95500.38;1032085;28;20022;-74
2023/12/08 00:11:26;;;;;;;1.00;0.90;;;;;;;-5.03;100.00;95508.34;1027102;28;20023;-74
2023/12/08 00:11:57;;;;;;;1.30;1.10;;;;;;;-5.05;100.00;95505.16;1031480;28;20034;-75
2023/12/08 00:12:28;;;;;;;0.75;0.75;;;;;;;-5.03;100.00;95503.25;1032083;28;20040;-75
2023/12/08 00:12:58;;;;;;;3.30;2.63;;;;;;;-5.02;100.00;95504.81;1031121;28;20057;-77
2023/12/08 00:13:29;;;;;;;0.73;0.73;;;;;;;-5.05;100.00;95494.94;1033718;28;20137;-74
2023/12/08 00:13:59;;;;;;;1.87;1.77;;;;;;;-5.03;100.00;95497.31;1034281;28;20022;-75
2023/12/08 00:14:30;;;;;;;1.17;1.13;;;;;;;-4.99;100.00;95499.38;1037049;28;20033;-77
2023/12/08 00:15:00;;;;;;;0.87;0.87;;;;;;;-4.98;100.00;95500.94;1039887;28;20037;-74
2023/12/08 00:15:31;;;;;;;1.90;1.20;;;;;;;-5.01;100.00;95501.28;1028154;28;20045;-74
2023/12/08 00:16:02;;;;;;;0.50;0.50;;;;;;;-4.97;100.00;95499.97;1029695;28;20042;-74
2023/12/08 00:16:32;;;;;;;3.83;2.08;;;;;;;-4.97;100.00;95502.53;1035551;28;20095;-75
2023/12/08 00:17:03;;;;;;;1.13;1.13;;;;;;;-4.95;100.00;95499.03;1043762;28;20055;-74
2023/12/08 00:17:33;;;;;;;8.50;2.83;;;;;;;-4.94;100.00;95495.50;1042126;28;20026;-74
2023/12/08 00:18:04;;;;;;;0.73;0.73;;;;;;;-4.92;100.00;95498.69;1043245;28;20025;-75
2023/12/08 00:18:35;;;;;;;1.63;1.43;;;;;;;-4.90;100.00;95494.19;1047317;28;20059;-76
2023/12/08 00:19:05;;;;;;;2.78;2.05;;;;;;;-4.91;100.00;95493.38;1043116;28;20425;-74
2023/12/08 00:19:36;;;;;;;1.50;1.47;;;;;;;-4.90;100.00;95497.53;1047414;28;20040;-76
2023/12/08 00:20:07;;;;;;;5.40;2.27;;;;;;;-4.88;100.00;95494.81;1043735;28;20866;-74
2023/12/08 00:20:38;;;;;;;1.40;1.35;;;;;;;-4.86;100.00;95492.84;1042826;28;20025;-74
2023/12/08 00:21:08;;;;;;;0.67;0.63;;;;;;;-4.87;100.00;95488.72;1038918;28;20404;-74
2023/12/08 00:21:39;;;;;;;1.43;1.37;;;;;;;-4.84;100.00;95480.69;1039573;28;20025;-75
2023/12/08 00:22:09;;;;;;;1.23;0.77;;;;;;;-4.85;100.00;95479.13;1042723;28;20063;-74
2023/12/08 00:22:40;;;;;;;2.37;2.20;;;;;;;-4.81;100.00;95476.03;1034928;28;20026;-75
2023/12/08 00:23:10;;;;;;;3.40;1.17;;;;;;;-4.79;100.00;95478.44;1018959;28;20036;-74
2023/12/08 00:23:41;;;;;;;7.83;2.80;;;;;;;-4.82;100.00;95463.41;1027011;28;20034;-75
2023/12/08 00:24:11;;;;;;;0.80;0.80;;;;;;;-4.84;100.00;95463.56;1030238;28;20576;-74
2023/12/08 00:24:42;;;;;;;1.27;1.27;;;;;;;-4.79;100.00;95470.75;1030032;28;20022;-73
2023/12/08 00:25:12;;;;;;;2.00;1.83;;;;;;;-4.77;100.00;95472.16;1030182;28;20062;-74
2023/12/08 00:25:43;;;;;;;1.27;1.27;;;;;;;-4.83;100.00;95462.63;1036733;28;20371;-75
2023/12/08 00:26:14;;;;;;;1.03;1.03;;;;;;;-4.78;100.00;95467.22;1036961;28;20699;-74
2023/12/08 00:26:44;;;;;;;1.90;1.75;;;;;;;-4.77;100.00;95464.47;1045085;28;20024;-74
2023/12/08 00:27:15;;;;;;;0.80;0.80;;;;;;;-4.77;100.00;95469.59;1045277;28;20060;-77
2023/12/08 00:27:45;;;;;;;1.53;1.43;;;;;;;-4.76;100.00;95463.53;1041883;28;20025;-74
2023/12/08 00:28:15;;;;;;;3.87;2.77;;;;;;;-4.77;100.00;95466.22;1039306;28;20051;-75
2023/12/08 00:28:46;;;;;;;0.93;0.83;;;;;;;-4.80;100.00;95461.47;1034998;28;20599;-74
2023/12/08 00:29:19;;;;;;;1.10;1.00;;;;;;;-4.78;100.00;95464.66;1039094;28;20038;-74
2023/12/08 00:29:50;;;;;;;1.08;1.08;;;;;;;-4.79;100.00;95466.44;1039897;28;20128;-75
2023/12/08 00:30:20;;;;;;;2.60;2.40;;;;;;;-4.84;100.00;95455.91;1039114;28;20033;-75
2023/12/08 00:30:51;;;;;;;3.83;2.40;;;;;;;-4.79;100.00;95468.97;1039028;28;20080;-74
2023/12/08 00:31:21;;;;;;;0.80;0.80;;;;;;;-4.86;100.00;95455.28;1038941;28;20025;-73
2023/12/08 00:31:52;;;;;;;1.90;1.57;;;;;;;-4.79;100.00;95463.06;1034972;28;20037;-75
2023/12/08 00:32:23;;;;;;;1.77;1.53;;;;;;;-4.80;100.00;95466.59;1038932;28;20021;-75
2023/12/08 00:32:53;;;;;;;1.23;1.13;;;;;;;-4.80;100.00;95461.47;1038597;28;20068;-74
2023/12/08 00:33:24;;;;;;;2.33;2.13;;;;;;;-4.81;100.00;95459.88;1031022;28;20521;-74
2023/12/08 00:33:54;;;;;;;1.30;1.30;;;;;;;-4.91;100.00;95449.88;1039034;28;20033;-75
2023/12/08 00:34:25;;;;;;;2.23;2.13;;;;;;;-4.83;100.00;95460.06;1038804;28;20024;-75
2023/12/08 00:34:55;;;;;;;2.47;1.80;;;;;;;-4.85;100.00;95458.66;1047568;28;20113;-75
2023/12/08 00:35:26;;;;;;;1.57;1.47;;;;;;;-4.85;100.00;95466.31;1047069;28;20538;-75
2023/12/08 00:35:56;;;;;;;1.83;1.70;;;;;;;-4.88;100.00;95459.00;1038929;28;20036;-74
2023/12/08 00:36:27;;;;;;;0.83;0.83;;;;;;;-4.88;100.00;95464.09;1038974;28;20018;-76
2023/12/08 00:36:57;;;;;;;1.63;1.50;;;;;;;-4.90;100.00;95460.91;1038896;28;20124;-75
2023/12/08 00:37:28;;;;;;;3.57;2.10;;;;;;;-4.91;100.00;95459.34;1030643;28;20088;-74
2023/12/08 00:37:58;;;;;;;1.50;1.40;;;;;;;-4.93;100.00;95458.69;1039041;28;20053;-75
2023/12/08 00:38:29;;;;;;;3.43;2.10;;;;;;;-4.97;100.00;95459.03;1026697;28;20463;-76
2023/12/08 00:38:59;;;;;;;1.07;1.00;;;;;;;-4.97;100.00;95460.81;1043327;28;20145;-76
2023/12/08 00:39:30;;;;;;;2.07;1.93;;;;;;;-4.98;100.00;95459.22;1034508;28;20465;-75
2023/12/08 00:40:01;;;;;;;0.93;0.93;;;;;;;-4.98;100.00;95460.03;1034771;28;20060;-76
2023/12/08 00:40:31;;;;;;;2.77;2.57;;;;;;;-5.02;100.00;95458.78;1043184;28;20634;-74
2023/12/08 00:41:02;;;;;;;3.43;2.10;;;;;;;-5.04;100.00;95454.78;1030799;28;20540;-75
2023/12/08 00:41:32;;;;;;;0.43;0.43;;;;;;;-5.06;100.00;95452.44;1026639;28;20108;-75
2023/12/08 00:42:03;;;;;;;0.90;0.53;;;;;;;-5.09;100.00;95451.97;1042734;28;20096;-75
2023/12/08 00:42:34;;;;;;;2.87;2.50;;;;;;;-5.06;100.00;95462.66;1034839;28;20497;-75
2023/12/08 00:43:05;;;;;;;0.73;0.73;;;;;;;-5.07;100.00;95463.59;1034852;28;20026;-76
2023/12/08 00:43:35;;;;;;;3.90;2.37;;;;;;;-5.12;100.00;95458.22;1034912;28;20465;-75
2023/12/08 00:44:08;;;;;;;3.50;2.87;;;;;;;-5.08;100.00;95458.66;1038843;28;20036;-74
2023/12/08 00:44:39;;;;;;;7.32;3.45;;;;;;;-5.08;100.00;95459.47;1031033;28;20018;-75
2023/12/08 00:45:09;;;;;;;1.97;1.67;;;;;;;-5.11;100.00;95449.56;1034803;28;20057;-76
2023/12/08 00:45:40;;;;;;;2.20;2.10;;;;;;;-5.06;100.00;95457.53;1046761;28;20008;-75
2023/12/08 00:46:10;;;;;;;2.67;1.20;;;;;;;-5.12;100.00;95448.00;1043302;28;20030;-75
2023/12/08 00:46:41;;;;;;;3.17;2.90;;;;;;;-5.08;100.00;95449.22;1023306;28;20020;-76
2023/12/08 00:47:12;;;;;;;5.50;1.40;;;;;;;-5.11;100.00;95453.91;1043355;28;20523;-73
2023/12/08 00:47:43;;;;;;;1.00;1.00;;;;;;;-5.08;100.00;95458.66;1026812;28;20806;-75
2023/12/08 00:48:14;;;;;;;3.53;1.90;;;;;;;-5.09;100.00;95457.88;1035846;28;20037;-75
2023/12/08 00:48:44;;;;;;;1.57;1.47;;;;;;;-5.12;100.00;95453.09;1040846;28;20124;-76
2023/12/08 00:49:15;;;;;;;5.83;2.00;;;;;;;-5.12;100.00;95450.56;1036115;28;20018;-75
2023/12/08 00:49:45;;;;;;;1.97;1.33;;;;;;;-5.09;100.00;95457.88;1035774;28;20045;-75
2023/12/08 00:50:16;;;;;;;4.30;3.50;;;;;;;-5.09;100.00;95460.44;1036899;28;20060;-74
2023/12/08 00:50:46;;;;;;;2.97;2.67;;;;;;;-5.08;100.00;95459.47;1039936;28;20076;-74
2023/12/08 00:51:17;;;;;;;1.60;1.37;;;;;;;-5.03;100.00;95464.06;1032774;28;20030;-75
2023/12/08 00:51:47;;;;;;;1.90;1.80;;;;;;;-5.08;100.00;95458.66;1031263;28;20022;-75
2023/12/08 00:52:18;;;;;;;1.80;1.10;;;;;;;-5.08;100.00;95453.56;1035286;28;20080;-74
2023/12/08 00:52:48;;;;;;;1.07;0.97;;;;;;;-5.11;100.00;95453.91;1043130;28;20028;-73
2023/12/08 00:53:19;;;;;;;1.93;1.83;;;;;;;-5.08;100.00;95464.56;1036838;28;20098;-75
2023/12/08 00:53:49;;;;;;;10.10;2.83;;;;;;;-5.07;100.00;95461.03;1034692;28;20033;-75
2023/12/08 00:54:21;;;;;;;1.40;1.30;;;;;;;-5.17;100.00;95434.91;1035033;28;20026;-75
2023/12/08 00:54:51;;;;;;;1.45;1.35;;;;;;;-5.06;100.00;95449.88;1029958;28;20052;-74
2023/12/08 00:55:21;;;;;;;2.33;2.13;;;;;;;-5.05;100.00;95448.09;1031401;28;20410;-76
2023/12/08 00:55:52;;;;;;;5.60;4.17;;;;;;;-5.06;100.00;95451.63;1046909;28;20444;-73
2023/12/08 00:56:22;;;;;;;1.90;1.47;;;;;;;-5.05;100.00;95448.09;1043100;28;20033;-75
2023/12/08 00:56:53;;;;;;;6.80;3.50;;;;;;;-5.08;100.00;95436.44;1043221;28;20021;-75
2023/12/08 00:57:23;;;;;;;1.83;1.73;;;;;;;-5.04;100.00;95445.34;1030725;28;20030;-76
2023/12/08 00:57:54;;;;;;;3.67;2.97;;;;;;;-5.04;100.00;95442.00;1034536;28;20030;-75
2023/12/08 00:58:24;;;;;;;2.40;2.20;;;;;;;-5.04;100.00;95445.34;1035187;28;20010;-75
2023/12/08 00:58:55;;;;;;;1.30;1.20;;;;;;;-5.02;100.00;95450.31;1034958;28;20064;-76
2023/12/08 00:59:25;;;;;;;3.03;1.53;;;;;;;-5.04;100.00;95453.03;1030714;28;20445;-74
2023/12/08 00:59:57;;;;;;;2.53;2.10;;;;;;;-5.05;100.00;95450.66;1035002;28;20493;-76
2023/12/08 01:00:27;;;;;;;1.95;1.83;;;;;;;-5.05;100.00;95454.00;1042828;28;20025;-75
2023/12/08 01:00:58;;;;;;;3.97;2.40;;;;;;;-5.03;100.00;95454.63;1035187;28;20095;-75
2023/12/08 01:01:28;;;;;;;2.60;1.50;;;;;;;-5.05;100.00;95458.34;1034735;28;20041;-75
2023/12/08 01:01:59;;;;;;;1.80;1.70;;;;;;;-5.03;100.00;95464.88;1034947;28;20026;-75
2023/12/08 01:02:29;;;;;;;3.60;1.70;;;;;;;-5.06;100.00;95460.09;1034411;28;20057;-76
2023/12/08 01:02:59;;;;;;;1.13;1.10;;;;;;;-5.11;100.00;95451.34;1034918;28;20559;-76
2023/12/08 01:03:30;;;;;;;1.53;1.20;;;;;;;-5.09;100.00;95459.66;1038879;28;20029;-75
2023/12/08 01:04:00;;;;;;;1.13;1.13;;;;;;;-5.10;100.00;95451.16;1035138;28;20037;-75
2023/12/08 01:04:31;;;;;;;1.70;1.53;;;;;;;-5.08;100.00;95448.44;1034475;28;20037;-75
2023/12/08 01:05:02;;;;;;;4.63;1.63;;;;;;;-5.12;100.00;95442.09;1038940;28;20025;-75
2023/12/08 01:05:32;;;;;;;2.17;1.88;;;;;;;-5.12;100.00;95450.56;1035070;28;20387;-75
2023/12/08 01:06:03;;;;;;;2.63;2.43;;;;;;;-5.12;100.00;95445.44;1035876;28;20078;-75
2023/12/08 01:06:33;;;;;;;1.37;1.37;;;;;;;-5.18;100.00;95432.53;1039027;28;20117;-76
2023/12/08 01:07:04;;;;;;;2.10;2.00;;;;;;;-5.16;100.00;95439.09;1030995;28;20034;-75
2023/12/08 01:07:35;;;;;;;3.87;1.97;;;;;;;-5.16;100.00;95436.53;1038656;28;20539;-77
2023/12/08 01:08:05;;;;;;;2.40;1.63;;;;;;;-5.17;100.00;95442.59;1027000;28;20129;-74
2023/12/08 01:08:36;;;;;;;0.50;0.50;;;;;;;-5.21;100.00;95431.13;1026718;28;20034;-76
2023/12/08 01:09:06;;;;;;;1.27;1.17;;;;;;;-5.24;100.00;95437.34;1034804;28;20476;-74
2023/12/08 01:09:36;;;;;;;3.40;2.67;;;;;;;-5.19;100.00;95443.75;1033303;28;20022;-74
2023/12/08 01:10:07;;;;;;;4.87;1.37;;;;;;;-5.19;100.00;95446.31;1034640;28;20078;-74
2023/12/08 01:10:37;;;;;;;1.13;1.10;;;;;;;-5.22;100.00;95448.22;1026611;28;20031;-75
2023/12/08 01:11:08;;;;;;;4.70;2.50;;;;;;;-5.24;100.00;95445.03;1022842;28;20031;-76
2023/12/08 01:11:38;;;;;;;1.50;1.20;;;;;;;-5.31;100.00;95440.78;1034777;28;20054;-75
2023/12/08 01:12:09;;;;;;;1.23;1.13;;;;;;;-5.26;100.00;95454.66;1038545;28;20121;-75
2023/12/08 01:12:39;;;;;;;0.83;0.83;;;;;;;-5.39;100.00;95435.75;1042771;28;20017;-75
2023/12/08 01:13:10;;;;;;;2.57;2.37;;;;;;;-5.32;100.00;95446.88;1034980;28;20349;-75
2023/12/08 01:13:40;;;;;;;2.33;1.80;;;;;;;-5.29;100.00;95444.75;1030569;28;20069;-75
2023/12/08 01:14:11;;;;;;;5.97;2.50;;;;;;;-5.31;100.00;95449.25;1022528;28;20027;-75
2023/12/08 01:14:41;;;;;;;8.23;2.60;;;;;;;-5.32;100.00;95451.97;1039114;28;20028;-76
2023/12/08 01:15:13;;;;;;;5.30;4.50;;;;;;;-5.35;100.00;95447.22;1038828;28;20022;-74
2023/12/08 01:15:43;;;;;;;1.35;1.23;;;;;;;-5.38;100.00;95447.53;1022579;28;20503;-74
2023/12/08 01:16:13;;;;;;;2.37;2.17;;;;;;;-5.36;100.00;95445.63;1039188;28;20175;-75
2023/12/08 01:16:44;;;;;;;0.40;0.40;;;;;;;-5.43;100.00;95432.72;1042828;28;20385;-75
2023/12/08 01:17:14;;;;;;;3.80;3.23;;;;;;;-5.37;100.00;95442.25;1043164;28;20070;-75
2023/12/08 01:17:45;;;;;;;1.87;1.73;;;;;;;-5.43;100.00;95427.63;1038418;28;20160;-75
2023/12/08 01:18:15;;;;;;;1.37;1.37;;;;;;;-5.37;100.00;95444.00;1038987;28;20018;-74
2023/12/08 01:18:46;;;;;;;2.10;1.90;;;;;;;-5.42;100.00;95441.19;1042906;28;20527;-74
2023/12/08 01:19:16;;;;;;;3.23;2.93;;;;;;;-5.46;100.00;95438.19;1038679;28;20025;-75
2023/12/08 01:19:47;;;;;;;1.13;1.03;;;;;;;-5.41;100.00;95453.00;1038510;28;20025;-75
2023/12/08 01:20:17;;;;;;;1.03;0.97;;;;;;;-5.39;100.00;95456.19;1034852;28;20026;-75
2023/12/08 01:20:48;;;;;;;1.50;1.43;;;;;;;-5.40;100.00;95446.91;1026334;28;20121;-75
2023/12/08 01:21:18;;;;;;;2.23;2.13;;;;;;;-5.39;100.00;95440.84;1035026;28;20022;-74
2023/12/08 01:21:49;;;;;;;0.57;0.57;;;;;;;-5.41;100.00;95450.44;1038732;28;20028;-74
2023/12/08 01:22:19;;;;;;;1.80;1.60;;;;;;;-5.41;100.00;95448.69;1034166;28;20053;-75
2023/12/08 01:22:50;;;;;;;0.37;0.37;;;;;;;-5.39;100.00;95443.41;1038730;28;20048;-74
2023/12/08 01:23:20;;;;;;;0.50;0.50;;;;;;;-5.39;100.00;95441.66;1030469;28;20097;-75
2023/12/08 01:23:51;;;;;;;3.03;2.83;;;;;;;-5.39;100.00;95441.66;1034636;28;20049;-73
2023/12/08 01:24:21;;;;;;;4.63;3.77;;;;;;;-5.41;100.00;95437.66;1034955;28;20030;-75
2023/12/08 01:24:51;;;;;;;1.23;1.13;;;;;;;-5.39;100.00;95438.31;1034546;28;20033;-74
2023/12/08 01:25:22;;;;;;;0.73;0.73;;;;;;;-5.39;100.00;95446.75;1031056;28;20022;-75
2023/12/08 01:25:52;;;;;;;1.43;1.33;;;;;;;-5.38;100.00;95447.53;1034338;28;20025;-76
2023/12/08 01:26:23;;;;;;;3.13;2.83;;;;;;;-5.39;100.00;95440.84;1042168;28;20032;-74
2023/12/08 01:26:53;;;;;;;2.17;1.23;;;;;;;-5.37;100.00;95444.00;1047216;28;20518;-74
2023/12/08 01:27:24;;;;;;;0.97;0.97;;;;;;;-5.36;100.00;95448.19;1035395;28;20018;-74
2023/12/08 01:27:55;;;;;;;1.80;1.70;;;;;;;-5.36;100.00;95446.41;1034376;28;20068;-75
2023/12/08 01:28:25;;;;;;;0.97;0.70;;;;;;;-5.35;100.00;95442.09;1026959;28;20022;-74
2023/12/08 01:28:55;;;;;;;1.60;1.50;;;;;;;-5.34;100.00;95448.78;1026972;28;20690;-75
2023/12/08 01:29:26;;;;;;;0.77;0.77;;;;;;;-5.35;100.00;95442.88;1030268;28;20023;-73
2023/12/08 01:29:56;;;;;;;0.93;0.93;;;;;;;-5.37;100.00;95433.78;1038728;28;20037;-75
2023/12/08 01:30:27;;;;;;;1.60;1.50;;;;;;;-5.34;100.00;95433.44;1038693;28;20044;-75
2023/12/08 01:30:58;;;;;;;1.53;0.90;;;;;;;-5.30;100.00;95440.63;1022982;28;20038;-74
2023/12/08 01:31:28;;;;;;;1.50;0.80;;;;;;;-5.29;100.00;95436.31;1026437;28;20460;-75
2023/12/08 01:31:59;;;;;;;1.47;1.37;;;;;;;-5.28;100.00;95440.44;1027042;28;20449;-74
2023/12/08 01:32:29;;;;;;;3.00;1.40;;;;;;;-5.26;100.00;95438.53;1030635;28;20030;-74
2023/12/08 01:33:00;;;;;;;1.60;1.30;;;;;;;-5.23;100.00;95440.75;1030466;28;20035;-75
2023/12/08 01:33:30;;;;;;;1.30;1.20;;;;;;;-5.26;100.00;95434.19;1034411;28;20109;-76
2023/12/08 01:34:01;;;;;;;0.30;0.30;;;;;;;-5.23;100.00;95440.75;1031496;28;20122;-74
2023/12/08 01:34:31;;;;;;;2.90;1.60;;;;;;;-5.26;100.00;95438.53;1035035;28;20017;-74
2023/12/08 01:35:01;;;;;;;1.57;1.53;;;;;;;-5.24;100.00;95439.91;1039552;28;20700;-73
2023/12/08 01:35:32;;;;;;;3.30;2.20;;;;;;;-5.22;100.00;95442.31;1034658;28;20029;-73
2023/12/08 01:36:03;;;;;;;1.60;1.33;;;;;;;-5.23;100.00;95440.75;1038722;28;20025;-73
2023/12/08 01:36:33;;;;;;;1.53;1.17;;;;;;;-5.26;100.00;95436.75;1038793;28;20071;-74
2023/12/08 01:37:04;;;;;;;1.40;1.13;;;;;;;-5.25;100.00;95432.44;1042910;28;20118;-75
2023/12/08 01:37:34;;;;;;;1.93;1.83;;;;;;;-5.17;100.00;95441.78;1034628;28;20030;-75
2023/12/08 01:38:05;;;;;;;0.83;0.83;;;;;;;-5.19;100.00;95439.41;1030847;28;20046;-74
2023/12/08 01:38:35;;;;;;;3.97;2.07;;;;;;;-5.19;100.00;95430.97;1034768;28;20026;-76
2023/12/08 01:39:05;;;;;;;0.47;0.47;;;;;;;-5.16;100.00;95433.97;1043211;28;20424;-74
2023/12/08 01:39:36;;;;;;;2.30;1.60;;;;;;;-5.14;100.00;95433.78;1038528;28;20021;-75
2023/12/08 01:40:07;;;;;;;5.20;2.50;;;;;;;-5.14;100.00;95434.56;1034605;28;20026;-75
2023/12/08 01:40:40;;;;;;;1.52;1.42;;;;;;;-5.14;100.00;95434.56;1038946;28;20014;-74
2023/12/08 01:41:17;;;;;;;1.05;1.05;;;;;;;-5.15;100.00;95422.75;1035068;28;20030;-74
2023/12/08 01:41:50;;;;;;;2.58;2.38;;;;;;;-5.18;100.00;95415.44;1034939;28;20033;-75
2023/12/08 01:42:21;;;;;;;3.50;2.00;;;;;;;-5.12;100.00;95417.31;1032592;28;20013;-75
2023/12/08 01:42:51;;;;;;;4.33;1.17;;;;;;;-5.10;100.00;95419.66;1037199;28;20049;-75
2023/12/08 01:43:22;;;;;;;0.67;0.67;;;;;;;-5.17;100.00;95403.44;1039409;28;20574;-73
2023/12/08 01:43:53;;;;;;;1.33;1.30;;;;;;;-5.10;100.00;95412.00;1034567;28;20018;-75
2023/12/08 01:44:23;;;;;;;1.80;1.70;;;;;;;-5.07;100.00;95417.56;1030631;28;20490;-75
2023/12/08 01:44:54;;;;;;;2.87;2.23;;;;;;;-5.09;100.00;95409.28;1029408;28;20014;-75
2023/12/08 01:45:24;;;;;;;3.00;1.90;;;;;;;-5.06;100.00;95418.38;1034898;28;20026;-75
2023/12/08 01:45:56;;;;;;;0.10;0.10;;;;;;;-5.07;100.00;95411.66;1034810;28;20021;-76
2023/12/08 01:46:28;;;;;;;0.63;0.63;;;;;;;-5.07;100.00;95414.22;1030494;28;20196;-74
2023/12/08 01:46:58;;;;;;;4.07;3.78;;;;;;;-5.07;100.00;95412.44;1026710;28;20712;-75
2023/12/08 01:47:29;;;;;;;1.93;1.83;;;;;;;-5.12;100.00;95401.16;1038894;28;20029;-75
2023/12/08 01:47:59;;;;;;;2.10;2.00;;;;;;;-5.05;100.00;95409.72;1026354;28;20109;-75
2023/12/08 01:48:30;;;;;;;1.50;1.07;;;;;;;-5.07;100.00;95402.22;1018736;29;20141;-74
2023/12/08 01:49:00;;;;;;;0.90;0.90;;;;;;;-5.00;100.00;95404.88;1027057;28;20019;-75
2023/12/08 01:49:31;;;;;;;1.10;1.10;;;;;;;-5.00;100.00;95404.88;1030367;28;20102;-75
2023/12/08 01:50:02;;;;;;;0.87;0.87;;;;;;;-4.98;100.00;95408.84;1026636;28;20027;-74
2023/12/08 01:50:33;;;;;;;1.05;0.93;;;;;;;-5.03;100.00;95400.94;1034415;28;20021;-74
2023/12/08 01:51:03;;;;;;;5.60;2.53;;;;;;;-5.04;100.00;95395.97;1031334;28;20034;-75
2023/12/08 01:51:34;;;;;;;1.33;1.33;;;;;;;-4.96;100.00;95411.25;1037057;28;20408;-77
2023/12/08 01:52:05;;;;;;;1.07;1.03;;;;;;;-4.98;100.00;95408.84;1044161;28;20024;-76
2023/12/08 01:52:36;;;;;;;0.57;0.57;;;;;;;-4.96;100.00;95411.25;1036739;28;20029;-76
2023/12/08 01:53:06;;;;;;;1.83;1.70;;;;;;;-5.02;100.00;95402.50;1032801;28;20018;-74
2023/12/08 01:53:37;;;;;;;1.90;1.03;;;;;;;-4.97;100.00;95410.44;1030705;28;20753;-76
2023/12/08 01:54:08;;;;;;;1.77;1.67;;;;;;;-4.93;100.00;95410.88;1034802;28;20405;-75
2023/12/08 01:54:38;;;;;;;2.03;1.73;;;;;;;-5.09;100.00;95386.25;1026533;28;20026;-75
2023/12/08 01:55:09;;;;;;;3.13;2.83;;;;;;;-4.90;100.00;95414.88;1033492;28;20018;-76
2023/12/08 01:55:39;;;;;;;1.63;1.53;;;;;;;-5.02;100.00;95407.63;1039050;28;20033;-75
2023/12/08 01:56:09;;;;;;;0.30;0.30;;;;;;;-4.99;100.00;95403.94;1030456;28;20038;-75
2023/12/08 01:56:40;;;;;;;0.80;0.80;;;;;;;-4.87;100.00;95414.50;1030185;28;20433;-74
2023/12/08 01:57:11;;;;;;;8.20;1.40;;;;;;;-4.87;100.00;95414.50;1034749;28;20061;-76
2023/12/08 01:57:42;;;;;;;2.10;2.00;;;;;;;-4.90;100.00;95414.88;1030476;28;20022;-74
2023/12/08 01:58:12;;;;;;;0.57;0.57;;;;;;;-4.84;100.00;95414.16;1026549;28;20039;-72
2023/12/08 01:58:42;;;;;;;1.40;1.30;;;;;;;-4.94;100.00;95398.28;1026671;28;20042;-75
2023/12/08 01:59:13;;;;;;;2.07;1.97;;;;;;;-4.86;100.00;95409.25;1030480;28;20034;-74
2023/12/08 01:59:43;;;;;;;1.27;1.17;;;;;;;-4.82;100.00;95412.25;1034874;28;20052;-74
2023/12/08 02:00:15;;;;;;;1.93;1.83;;;;;;;-4.85;100.00;95408.25;1034486;28;20045;-74
2023/12/08 02:00:45;;;;;;;0.55;0.55;;;;;;;-4.79;100.00;95412.69;1033522;28;20050;-74
2023/12/08 02:01:16;;;;;;;1.07;0.80;;;;;;;-4.77;100.00;95415.06;1026964;28;20030;-75
2023/12/08 02:01:46;;;;;;;3.17;2.43;;;;;;;-4.82;100.00;95407.13;1026397;28;20023;-74
2023/12/08 02:02:18;;;;;;;0.97;0.97;;;;;;;-4.76;100.00;95421.78;1026099;28;20122;-75
2023/12/08 02:02:49;;;;;;;1.00;1.00;;;;;;;-4.79;100.00;95411.91;1034478;28;20032;-75
2023/12/08 02:03:19;;;;;;;2.00;1.90;;;;;;;-4.79;100.00;95409.34;1034461;28;20034;-74
2023/12/08 02:03:50;;;;;;;2.80;1.80;;;;;;;-4.77;100.00;95415.06;1018735;29;20491;-75
2023/12/08 02:04:20;;;;;;;0.65;0.65;;;;;;;-4.75;100.00;95419.03;1025529;28;20050;-74
2023/12/08 02:04:51;;;;;;;1.43;1.27;;;;;;;-4.72;100.00;95423.00;1030281;28;20034;-76
2023/12/08 02:05:22;;;;;;;1.57;1.47;;;;;;;-4.73;100.00;95418.84;1035198;28;20564;-74
2023/12/08 02:05:52;;;;;;;1.07;1.03;;;;;;;-4.72;100.00;95422.22;1038405;28;20096;-73
2023/12/08 02:06:22;;;;;;;1.60;1.50;;;;;;;-4.76;100.00;95416.66;1034998;28;20029;-74
2023/12/08 02:06:53;;;;;;;1.03;1.03;;;;;;;-4.78;100.00;95413.47;1042637;28;20079;-76
2023/12/08 02:07:25;;;;;;;2.75;2.55;;;;;;;-4.74;100.00;95419.81;1037884;28;20041;-74
2023/12/08 02:07:55;;;;;;;3.25;3.05;;;;;;;-4.80;100.00;95411.06;1035089;28;20029;-76
2023/12/08 02:08:26;;;;;;;2.50;2.33;;;;;;;-4.72;100.00;95415.34;1035157;28;20076;-73
2023/12/08 02:08:58;;;;;;;0.63;0.63;;;;;;;-4.69;100.00;95417.56;1027133;28;20031;-75
2023/12/08 02:09:28;;;;;;;1.25;0.82;;;;;;;-4.68;100.00;95415.78;1026914;28;20042;-76
2023/12/08 02:09:58;;;;;;;1.13;1.03;;;;;;;-4.71;100.00;95416.13;1025834;28;20031;-75
2023/12/08 02:10:29;;;;;;;1.40;1.40;;;;;;;-4.67;100.00;95420.72;1039906;28;20030;-76
2023/12/08 02:10:59;;;;;;;16.50;2.47;;;;;;;-4.65;100.00;95418.00;1037413;28;20030;-76
2023/12/08 02:11:30;;;;;;;1.60;1.37;;;;;;;-4.67;100.00;95410.47;1036473;28;20022;-75
2023/12/08 02:12:00;;;;;;;1.10;1.10;;;;;;;-4.63;100.00;95419.38;1028697;28;20027;-75
2023/12/08 02:12:31;;;;;;;3.00;2.00;;;;;;;-4.63;100.00;95411.69;1029941;28;20041;-75
2023/12/08 02:13:01;;;;;;;2.40;2.13;;;;;;;-4.65;100.00;95416.22;1024301;28;20106;-75
2023/12/08 02:13:32;;;;;;;2.00;1.23;;;;;;;-4.63;100.00;95410.91;1034806;28;20056;-74
2023/12/08 02:14:02;;;;;;;3.13;2.80;;;;;;;-4.63;100.00;95416.81;1030221;28;20446;-74
2023/12/08 02:14:33;;;;;;;1.73;1.63;;;;;;;-4.64;100.00;95410.13;1038928;28;20056;-74
2023/12/08 02:15:04;;;;;;;0.43;0.43;;;;;;;-4.67;100.00;95395.13;1025904;28;20023;-74
2023/12/08 02:15:34;;;;;;;2.63;1.60;;;;;;;-4.64;100.00;95415.25;1038724;28;20121;-75
2023/12/08 02:16:16;;;;;;;1.17;1.10;;;;;;;-4.61;100.00;95408.97;1039044;28;20677;-74
2023/12/08 02:16:53;;;;;;;1.63;1.08;;;;;;;-4.60;100.00;95415.69;1030193;28;20014;-75
2023/12/08 02:17:30;;;;;;;1.95;1.02;;;;;;;-4.60;100.00;95397.75;1037588;28;20029;-73
2023/12/08 02:18:00;;;;;;;0.90;0.85;;;;;;;-4.61;100.00;95399.53;1026639;28;20031;-76
2023/12/08 02:18:32;;;;;;;0.70;0.70;;;;;;;-4.61;100.00;95398.75;1030675;28;20045;-75
2023/12/08 02:19:03;;;;;;;0.57;0.57;;;;;;;-4.58;100.00;95403.50;1034752;28;20056;-73
2023/12/08 02:19:33;;;;;;;1.88;1.77;;;;;;;-4.63;100.00;95393.00;1030636;28;20589;-74
2023/12/08 02:20:09;;;;;;;1.40;1.33;;;;;;;-4.62;100.00;95397.97;1034875;28;20037;-74
2023/12/08 02:20:41;;;;;;;0.30;0.30;;;;;;;-4.64;100.00;95394.75;1036987;28;20584;-76
2023/12/08 02:21:13;;;;;;;0.52;0.52;;;;;;;-4.64;100.00;95394.75;1035942;28;20038;-75
2023/12/08 02:21:44;;;;;;;4.00;2.10;;;;;;;-4.65;100.00;95393.19;1036331;28;20042;-76
2023/12/08 02:22:16;;;;;;;0.87;0.87;;;;;;;-4.68;100.00;95385.84;1034509;28;20033;-75
2023/12/08 02:22:47;;;;;;;0.35;0.35;;;;;;;-4.67;100.00;95390.00;1036243;28;20028;-75